This is the latest recevied weather packets stored in our database for station/object JF7BTK-10. If no packets are shown the sender has not sent any weather packets the latest 10 day(s).
| Time | Temp. | Humidity | Pressure | Rain* | Wind** | Luminosity | Snow |
|---|---|---|---|---|---|---|---|
| 1778027500 | 20.56° C | 41% | 1012.8 hPa | 0 mm | - | - | - |
| 1778026599 | 21.11° C | 40% | 1012.6 hPa | 0 mm | - | - | - |
| 1778025700 | 21.67° C | 40% | 1012.6 hPa | 0 mm | - | - | - |
| 1778023900 | 21.11° C | 40% | 1012.4 hPa | 0 mm | - | - | - |
| 1778022099 | 20.56° C | 38% | 1012.5 hPa | 0 mm | - | - | - |
| 1778021200 | 20.56° C | 37% | 1012.6 hPa | 0 mm | - | - | - |
| 1778020299 | 19.44° C | 40% | 1012.5 hPa | 0 mm | - | - | - |
| 1778019399 | 19.44° C | 38% | 1012.6 hPa | 0 mm | - | - | - |
| 1778018500 | 17.78° C | 35% | 1012.6 hPa | 0 mm | - | - | - |
| 1778017600 | 16.67° C | 40% | 1012.7 hPa | 0 mm | - | - | - |
| 1778016700 | 16.11° C | 42% | 1012.4 hPa | 0 mm | - | - | - |
| 1778015799 | 14.44° C | 47% | 1012.6 hPa | 0 mm | - | - | - |
| 1778014899 | 12.22° C | 62% | 1012.4 hPa | 0 mm | - | - | - |
| 1778013999 | 11.11° C | 62% | 1012.4 hPa | 0 mm | - | - | - |
| 1778013099 | 10° C | 62% | 1012.1 hPa | 0 mm | - | - | - |
| 1778012198 | 9.44° C | 65% | 1011.9 hPa | 0 mm | - | - | - |
| 1778011300 | 8.33° C | 66% | 1011.9 hPa | 0 mm | - | - | - |
| 1778010400 | 8.33° C | 66% | 1011.7 hPa | 0 mm | - | - | - |
| 1778009499 | 8.89° C | 64% | 1011.7 hPa | 0 mm | - | - | - |
| 1778008599 | 8.89° C | 66% | 1011.7 hPa | 0 mm | - | - | - |
| 1778007699 | 7.22° C | 74% | 1011.7 hPa | 0 mm | - | - | - |
| 1778006799 | 7.22° C | 74% | 1011.4 hPa | 0 mm | - | - | - |
| 1778005898 | 7.22° C | 74% | 1011.2 hPa | 0 mm | - | - | - |
| 1778005000 | 7.22° C | 72% | 1011.1 hPa | 0 mm | - | - | - |
| 1778004099 | 7.78° C | 66% | 1011.3 hPa | 0 mm | - | - | - |
* Rain latest hour (hover to see other rain measurements)
** Current wind speed in m/s (hover to see current wind gust speed)